sensor_id;sensor_type;location;lat;lon;timestamp;P1;durP1;ratioP1;P2;durP2;ratioP2
11791;SDS011;5953;52.372;9.918;2023-11-21T00:01:16;14.67;;;6.07;;
11791;SDS011;5953;52.372;9.918;2023-11-21T00:03:44;9.57;;;5.60;;
11791;SDS011;5953;52.372;9.918;2023-11-21T00:06:13;11.37;;;6.00;;
11791;SDS011;5953;52.372;9.918;2023-11-21T00:08:41;12.57;;;5.50;;
11791;SDS011;5953;52.372;9.918;2023-11-21T00:11:09;10.20;;;5.33;;
11791;SDS011;5953;52.372;9.918;2023-11-21T00:13:37;11.60;;;6.37;;
11791;SDS011;5953;52.372;9.918;2023-11-21T00:16:05;11.93;;;6.37;;
11791;SDS011;5953;52.372;9.918;2023-11-21T00:18:34;14.53;;;6.20;;
11791;SDS011;5953;52.372;9.918;2023-11-21T00:21:02;14.07;;;6.50;;
11791;SDS011;5953;52.372;9.918;2023-11-21T00:23:31;17.03;;;7.13;;
11791;SDS011;5953;52.372;9.918;2023-11-21T00:25:59;13.43;;;6.77;;
11791;SDS011;5953;52.372;9.918;2023-11-21T00:28:27;12.10;;;7.33;;
11791;SDS011;5953;52.372;9.918;2023-11-21T00:30:56;17.23;;;7.30;;
11791;SDS011;5953;52.372;9.918;2023-11-21T00:33:24;17.27;;;8.23;;
11791;SDS011;5953;52.372;9.918;2023-11-21T00:35:53;11.33;;;7.23;;
11791;SDS011;5953;52.372;9.918;2023-11-21T00:38:21;15.27;;;6.27;;
11791;SDS011;5953;52.372;9.918;2023-11-21T00:40:50;10.43;;;6.93;;
11791;SDS011;5953;52.372;9.918;2023-11-21T00:43:19;13.57;;;8.00;;
11791;SDS011;5953;52.372;9.918;2023-11-21T00:45:47;16.27;;;6.80;;
11791;SDS011;5953;52.372;9.918;2023-11-21T00:48:15;15.03;;;7.43;;
11791;SDS011;5953;52.372;9.918;2023-11-21T00:50:44;14.13;;;6.77;;
11791;SDS011;5953;52.372;9.918;2023-11-21T00:53:12;14.17;;;7.17;;
11791;SDS011;5953;52.372;9.918;2023-11-21T00:55:40;11.37;;;7.13;;
11791;SDS011;5953;52.372;9.918;2023-11-21T00:58:09;17.57;;;6.73;;
11791;SDS011;5953;52.372;9.918;2023-11-21T01:00:37;12.27;;;6.93;;
11791;SDS011;5953;52.372;9.918;2023-11-21T01:03:06;14.73;;;7.30;;
11791;SDS011;5953;52.372;9.918;2023-11-21T01:05:35;17.90;;;7.57;;
11791;SDS011;5953;52.372;9.918;2023-11-21T01:08:03;17.70;;;8.17;;
11791;SDS011;5953;52.372;9.918;2023-11-21T01:10:31;14.10;;;8.10;;
11791;SDS011;5953;52.372;9.918;2023-11-21T01:13:00;14.60;;;7.80;;
11791;SDS011;5953;52.372;9.918;2023-11-21T01:15:31;13.50;;;7.40;;
11791;SDS011;5953;52.372;9.918;2023-11-21T01:17:59;16.63;;;8.37;;
11791;SDS011;5953;52.372;9.918;2023-11-21T01:20:27;15.47;;;7.63;;
11791;SDS011;5953;52.372;9.918;2023-11-21T01:22:55;14.83;;;7.97;;
11791;SDS011;5953;52.372;9.918;2023-11-21T01:25:23;14.07;;;7.27;;
11791;SDS011;5953;52.372;9.918;2023-11-21T01:27:51;18.50;;;8.40;;
11791;SDS011;5953;52.372;9.918;2023-11-21T01:30:18;15.80;;;8.17;;
11791;SDS011;5953;52.372;9.918;2023-11-21T01:32:48;19.20;;;8.40;;
11791;SDS011;5953;52.372;9.918;2023-11-21T01:35:16;16.13;;;7.87;;
11791;SDS011;5953;52.372;9.918;2023-11-21T01:37:44;16.83;;;9.10;;
11791;SDS011;5953;52.372;9.918;2023-11-21T01:40:12;15.70;;;8.83;;
11791;SDS011;5953;52.372;9.918;2023-11-21T01:42:41;17.20;;;7.63;;
11791;SDS011;5953;52.372;9.918;2023-11-21T01:45:09;16.23;;;8.23;;
11791;SDS011;5953;52.372;9.918;2023-11-21T01:47:39;12.67;;;8.20;;
11791;SDS011;5953;52.372;9.918;2023-11-21T01:50:11;16.80;;;9.00;;
11791;SDS011;5953;52.372;9.918;2023-11-21T01:52:43;17.13;;;8.33;;
11791;SDS011;5953;52.372;9.918;2023-11-21T01:55:12;17.27;;;8.97;;
11791;SDS011;5953;52.372;9.918;2023-11-21T01:57:53;18.23;;;9.40;;
11791;SDS011;5953;52.372;9.918;2023-11-21T02:00:22;19.30;;;8.80;;
11791;SDS011;5953;52.372;9.918;2023-11-21T02:02:50;19.50;;;9.53;;
11791;SDS011;5953;52.372;9.918;2023-11-21T02:05:20;18.97;;;8.53;;
11791;SDS011;5953;52.372;9.918;2023-11-21T02:07:48;13.77;;;8.93;;
11791;SDS011;5953;52.372;9.918;2023-11-21T02:10:18;17.67;;;9.70;;
11791;SDS011;5953;52.372;9.918;2023-11-21T02:12:49;18.23;;;8.67;;
11791;SDS011;5953;52.372;9.918;2023-11-21T02:15:17;17.87;;;9.60;;
11791;SDS011;5953;52.372;9.918;2023-11-21T02:17:47;18.87;;;9.97;;
11791;SDS011;5953;52.372;9.918;2023-11-21T02:20:20;15.73;;;9.50;;
11791;SDS011;5953;52.372;9.918;2023-11-21T02:22:53;15.97;;;9.73;;
11791;SDS011;5953;52.372;9.918;2023-11-21T02:25:25;19.10;;;9.40;;
11791;SDS011;5953;52.372;9.918;2023-11-21T02:27:54;14.93;;;9.20;;
11791;SDS011;5953;52.372;9.918;2023-11-21T02:30:22;18.93;;;10.10;;
11791;SDS011;5953;52.372;9.918;2023-11-21T02:32:51;21.77;;;10.03;;
11791;SDS011;5953;52.372;9.918;2023-11-21T02:35:19;21.43;;;10.67;;
11791;SDS011;5953;52.372;9.918;2023-11-21T02:37:48;16.90;;;9.50;;
11791;SDS011;5953;52.372;9.918;2023-11-21T02:40:17;20.43;;;9.90;;
11791;SDS011;5953;52.372;9.918;2023-11-21T02:42:47;19.00;;;10.30;;
11791;SDS011;5953;52.372;9.918;2023-11-21T02:45:17;19.57;;;10.20;;
11791;SDS011;5953;52.372;9.918;2023-11-21T02:47:47;21.03;;;10.37;;
11791;SDS011;5953;52.372;9.918;2023-11-21T02:50:15;19.53;;;10.67;;
11791;SDS011;5953;52.372;9.918;2023-11-21T02:52:45;20.27;;;11.43;;
11791;SDS011;5953;52.372;9.918;2023-11-21T02:55:13;19.00;;;10.87;;
11791;SDS011;5953;52.372;9.918;2023-11-21T02:57:43;21.80;;;10.47;;
11791;SDS011;5953;52.372;9.918;2023-11-21T03:00:11;19.40;;;11.53;;
11791;SDS011;5953;52.372;9.918;2023-11-21T03:02:41;23.27;;;11.27;;
11791;SDS011;5953;52.372;9.918;2023-11-21T03:05:10;19.40;;;10.83;;
11791;SDS011;5953;52.372;9.918;2023-11-21T03:07:38;20.47;;;11.30;;
11791;SDS011;5953;52.372;9.918;2023-11-21T03:10:06;21.57;;;11.00;;
11791;SDS011;5953;52.372;9.918;2023-11-21T03:12:37;21.70;;;11.73;;
11791;SDS011;5953;52.372;9.918;2023-11-21T03:15:07;21.53;;;10.80;;
11791;SDS011;5953;52.372;9.918;2023-11-21T03:17:36;18.90;;;11.90;;
11791;SDS011;5953;52.372;9.918;2023-11-21T03:20:04;20.27;;;12.10;;
11791;SDS011;5953;52.372;9.918;2023-11-21T03:22:37;19.87;;;10.87;;
11791;SDS011;5953;52.372;9.918;2023-11-21T03:25:05;16.40;;;10.47;;
11791;SDS011;5953;52.372;9.918;2023-11-21T03:27:37;19.70;;;10.93;;
11791;SDS011;5953;52.372;9.918;2023-11-21T03:30:08;26.70;;;12.23;;
11791;SDS011;5953;52.372;9.918;2023-11-21T03:32:37;23.07;;;11.77;;
11791;SDS011;5953;52.372;9.918;2023-11-21T03:35:05;24.00;;;12.83;;
11791;SDS011;5953;52.372;9.918;2023-11-21T03:37:33;23.40;;;11.63;;
11791;SDS011;5953;52.372;9.918;2023-11-21T03:40:01;19.63;;;11.73;;
11791;SDS011;5953;52.372;9.918;2023-11-21T03:42:30;19.37;;;11.63;;
11791;SDS011;5953;52.372;9.918;2023-11-21T03:44:58;20.53;;;11.53;;
11791;SDS011;5953;52.372;9.918;2023-11-21T03:47:27;19.97;;;11.77;;
11791;SDS011;5953;52.372;9.918;2023-11-21T03:49:55;21.20;;;11.80;;
11791;SDS011;5953;52.372;9.918;2023-11-21T03:52:23;22.00;;;11.87;;
11791;SDS011;5953;52.372;9.918;2023-11-21T03:54:51;26.17;;;11.90;;
11791;SDS011;5953;52.372;9.918;2023-11-21T03:57:19;23.53;;;12.27;;
11791;SDS011;5953;52.372;9.918;2023-11-21T03:59:47;22.83;;;12.27;;
11791;SDS011;5953;52.372;9.918;2023-11-21T04:02:15;25.23;;;12.73;;
11791;SDS011;5953;52.372;9.918;2023-11-21T04:04:45;24.10;;;12.03;;
11791;SDS011;5953;52.372;9.918;2023-11-21T04:07:13;26.70;;;14.30;;
11791;SDS011;5953;52.372;9.918;2023-11-21T04:09:41;25.00;;;12.70;;
11791;SDS011;5953;52.372;9.918;2023-11-21T04:12:09;25.00;;;12.90;;
11791;SDS011;5953;52.372;9.918;2023-11-21T04:14:38;27.57;;;14.03;;
11791;SDS011;5953;52.372;9.918;2023-11-21T04:17:06;21.30;;;11.87;;
11791;SDS011;5953;52.372;9.918;2023-11-21T04:19:34;24.83;;;13.67;;
11791;SDS011;5953;52.372;9.918;2023-11-21T04:22:03;24.73;;;13.47;;
11791;SDS011;5953;52.372;9.918;2023-11-21T04:24:31;28.53;;;14.50;;
11791;SDS011;5953;52.372;9.918;2023-11-21T04:26:59;26.67;;;13.40;;
11791;SDS011;5953;52.372;9.918;2023-11-21T04:29:27;22.17;;;14.20;;
11791;SDS011;5953;52.372;9.918;2023-11-21T04:31:54;26.97;;;13.47;;
11791;SDS011;5953;52.372;9.918;2023-11-21T04:34:22;29.43;;;13.33;;
11791;SDS011;5953;52.372;9.918;2023-11-21T04:36:50;24.33;;;13.10;;
11791;SDS011;5953;52.372;9.918;2023-11-21T04:39:19;25.60;;;14.27;;
11791;SDS011;5953;52.372;9.918;2023-11-21T04:41:47;31.23;;;14.37;;
11791;SDS011;5953;52.372;9.918;2023-11-21T04:44:15;27.47;;;14.20;;
11791;SDS011;5953;52.372;9.918;2023-11-21T04:46:43;28.03;;;13.40;;
11791;SDS011;5953;52.372;9.918;2023-11-21T04:49:11;31.20;;;14.53;;
11791;SDS011;5953;52.372;9.918;2023-11-21T04:51:39;24.47;;;13.13;;
11791;SDS011;5953;52.372;9.918;2023-11-21T04:54:07;26.30;;;14.17;;
11791;SDS011;5953;52.372;9.918;2023-11-21T04:56:36;27.67;;;14.77;;
11791;SDS011;5953;52.372;9.918;2023-11-21T04:59:04;28.97;;;14.33;;
11791;SDS011;5953;52.372;9.918;2023-11-21T05:01:32;25.77;;;15.40;;
11791;SDS011;5953;52.372;9.918;2023-11-21T05:04:00;33.50;;;17.97;;
11791;SDS011;5953;52.372;9.918;2023-11-21T05:06:28;31.23;;;17.10;;
11791;SDS011;5953;52.372;9.918;2023-11-21T05:08:55;32.37;;;16.50;;
11791;SDS011;5953;52.372;9.918;2023-11-21T05:11:24;29.63;;;18.03;;
11791;SDS011;5953;52.372;9.918;2023-11-21T05:13:53;30.07;;;15.37;;
11791;SDS011;5953;52.372;9.918;2023-11-21T05:16:22;30.03;;;15.23;;
11791;SDS011;5953;52.372;9.918;2023-11-21T05:18:50;27.53;;;15.87;;
11791;SDS011;5953;52.372;9.918;2023-11-21T05:21:18;28.60;;;15.37;;
11791;SDS011;5953;52.372;9.918;2023-11-21T05:23:47;24.73;;;14.67;;
11791;SDS011;5953;52.372;9.918;2023-11-21T05:26:15;26.37;;;15.47;;
11791;SDS011;5953;52.372;9.918;2023-11-21T05:28:42;25.27;;;14.83;;
11791;SDS011;5953;52.372;9.918;2023-11-21T05:31:12;24.27;;;13.97;;
11791;SDS011;5953;52.372;9.918;2023-11-21T05:33:42;28.10;;;15.20;;
11791;SDS011;5953;52.372;9.918;2023-11-21T05:36:10;23.23;;;14.43;;
11791;SDS011;5953;52.372;9.918;2023-11-21T05:38:38;23.00;;;15.13;;
11791;SDS011;5953;52.372;9.918;2023-11-21T05:41:06;25.23;;;14.33;;
11791;SDS011;5953;52.372;9.918;2023-11-21T05:43:37;22.17;;;14.53;;
11791;SDS011;5953;52.372;9.918;2023-11-21T05:46:05;22.40;;;14.67;;
11791;SDS011;5953;52.372;9.918;2023-11-21T05:48:34;21.10;;;14.53;;
11791;SDS011;5953;52.372;9.918;2023-11-21T05:51:04;21.37;;;15.00;;
11791;SDS011;5953;52.372;9.918;2023-11-21T05:53:31;20.70;;;14.33;;
11791;SDS011;5953;52.372;9.918;2023-11-21T05:55:59;23.47;;;14.03;;
11791;SDS011;5953;52.372;9.918;2023-11-21T05:58:27;16.60;;;12.07;;
11791;SDS011;5953;52.372;9.918;2023-11-21T06:00:55;17.67;;;12.30;;
11791;SDS011;5953;52.372;9.918;2023-11-21T06:03:23;18.37;;;12.63;;
11791;SDS011;5953;52.372;9.918;2023-11-21T06:05:53;19.03;;;12.53;;
11791;SDS011;5953;52.372;9.918;2023-11-21T06:08:21;14.83;;;10.97;;
11791;SDS011;5953;52.372;9.918;2023-11-21T06:10:48;15.77;;;10.80;;
11791;SDS011;5953;52.372;9.918;2023-11-21T06:13:16;15.57;;;11.33;;
11791;SDS011;5953;52.372;9.918;2023-11-21T06:15:47;15.00;;;10.97;;
11791;SDS011;5953;52.372;9.918;2023-11-21T06:18:14;17.70;;;11.47;;
11791;SDS011;5953;52.372;9.918;2023-11-21T06:20:42;16.83;;;11.37;;
11791;SDS011;5953;52.372;9.918;2023-11-21T06:23:11;15.27;;;10.77;;
11791;SDS011;5953;52.372;9.918;2023-11-21T06:25:40;11.83;;;7.27;;
11791;SDS011;5953;52.372;9.918;2023-11-21T06:28:08;7.10;;;5.53;;
11791;SDS011;5953;52.372;9.918;2023-11-21T06:30:36;6.13;;;4.93;;
11791;SDS011;5953;52.372;9.918;2023-11-21T06:33:04;7.80;;;4.73;;
11791;SDS011;5953;52.372;9.918;2023-11-21T06:35:32;7.53;;;5.10;;
11791;SDS011;5953;52.372;9.918;2023-11-21T06:38:01;6.30;;;5.27;;
11791;SDS011;5953;52.372;9.918;2023-11-21T06:40:30;8.87;;;5.37;;
11791;SDS011;5953;52.372;9.918;2023-11-21T06:43:00;6.27;;;5.50;;
11791;SDS011;5953;52.372;9.918;2023-11-21T06:45:28;7.30;;;5.40;;
11791;SDS011;5953;52.372;9.918;2023-11-21T06:47:56;7.60;;;5.57;;
11791;SDS011;5953;52.372;9.918;2023-11-21T06:50:24;7.67;;;5.57;;
11791;SDS011;5953;52.372;9.918;2023-11-21T06:52:52;8.43;;;6.23;;
11791;SDS011;5953;52.372;9.918;2023-11-21T06:55:19;8.20;;;6.23;;
11791;SDS011;5953;52.372;9.918;2023-11-21T06:57:49;9.10;;;6.53;;
11791;SDS011;5953;52.372;9.918;2023-11-21T07:00:18;7.93;;;6.70;;
11791;SDS011;5953;52.372;9.918;2023-11-21T07:02:47;11.70;;;7.17;;
11791;SDS011;5953;52.372;9.918;2023-11-21T07:05:15;8.37;;;6.20;;
11791;SDS011;5953;52.372;9.918;2023-11-21T07:07:47;9.30;;;6.20;;
11791;SDS011;5953;52.372;9.918;2023-11-21T07:10:15;7.20;;;5.83;;
11791;SDS011;5953;52.372;9.918;2023-11-21T07:12:43;8.00;;;6.03;;
11791;SDS011;5953;52.372;9.918;2023-11-21T07:15:12;6.93;;;5.77;;
11791;SDS011;5953;52.372;9.918;2023-11-21T07:17:40;7.60;;;5.87;;
11791;SDS011;5953;52.372;9.918;2023-11-21T07:20:08;8.60;;;6.57;;
11791;SDS011;5953;52.372;9.918;2023-11-21T07:22:37;10.60;;;6.47;;
11791;SDS011;5953;52.372;9.918;2023-11-21T07:25:05;8.93;;;6.50;;
11791;SDS011;5953;52.372;9.918;2023-11-21T07:27:33;8.00;;;6.50;;
11791;SDS011;5953;52.372;9.918;2023-11-21T07:30:02;9.23;;;7.60;;
11791;SDS011;5953;52.372;9.918;2023-11-21T07:32:33;9.40;;;7.53;;
11791;SDS011;5953;52.372;9.918;2023-11-21T07:35:01;9.63;;;7.57;;
11791;SDS011;5953;52.372;9.918;2023-11-21T07:37:29;11.07;;;7.13;;
11791;SDS011;5953;52.372;9.918;2023-11-21T07:39:57;14.73;;;7.40;;
11791;SDS011;5953;52.372;9.918;2023-11-21T07:42:25;10.57;;;8.00;;
11791;SDS011;5953;52.372;9.918;2023-11-21T07:44:53;10.53;;;8.07;;
11791;SDS011;5953;52.372;9.918;2023-11-21T07:47:21;10.03;;;7.57;;
11791;SDS011;5953;52.372;9.918;2023-11-21T07:49:50;10.23;;;7.07;;
11791;SDS011;5953;52.372;9.918;2023-11-21T07:52:18;11.00;;;7.87;;
11791;SDS011;5953;52.372;9.918;2023-11-21T07:54:47;8.50;;;6.67;;
11791;SDS011;5953;52.372;9.918;2023-11-21T07:57:15;8.23;;;7.10;;
11791;SDS011;5953;52.372;9.918;2023-11-21T07:59:43;9.27;;;7.07;;
11791;SDS011;5953;52.372;9.918;2023-11-21T08:02:11;9.80;;;7.00;;
11791;SDS011;5953;52.372;9.918;2023-11-21T08:04:38;8.90;;;6.13;;
11791;SDS011;5953;52.372;9.918;2023-11-21T08:07:08;9.83;;;7.50;;
11791;SDS011;5953;52.372;9.918;2023-11-21T08:09:36;11.47;;;8.23;;
11791;SDS011;5953;52.372;9.918;2023-11-21T08:12:04;9.77;;;7.97;;
11791;SDS011;5953;52.372;9.918;2023-11-21T08:14:32;11.77;;;9.20;;
11791;SDS011;5953;52.372;9.918;2023-11-21T08:17:00;16.00;;;10.63;;
11791;SDS011;5953;52.372;9.918;2023-11-21T08:19:28;13.53;;;9.53;;
11791;SDS011;5953;52.372;9.918;2023-11-21T08:21:55;13.13;;;9.57;;
11791;SDS011;5953;52.372;9.918;2023-11-21T08:24:27;14.50;;;9.70;;
11791;SDS011;5953;52.372;9.918;2023-11-21T08:26:54;13.80;;;9.33;;
11791;SDS011;5953;52.372;9.918;2023-11-21T08:29:22;13.70;;;10.10;;
11791;SDS011;5953;52.372;9.918;2023-11-21T08:31:50;15.20;;;9.80;;
11791;SDS011;5953;52.372;9.918;2023-11-21T08:34:18;12.40;;;9.77;;
11791;SDS011;5953;52.372;9.918;2023-11-21T08:36:46;11.97;;;9.50;;
11791;SDS011;5953;52.372;9.918;2023-11-21T08:39:14;13.27;;;9.57;;
11791;SDS011;5953;52.372;9.918;2023-11-21T08:41:44;13.17;;;8.40;;
11791;SDS011;5953;52.372;9.918;2023-11-21T08:44:12;16.47;;;10.93;;
11791;SDS011;5953;52.372;9.918;2023-11-21T08:46:39;12.23;;;9.03;;
11791;SDS011;5953;52.372;9.918;2023-11-21T08:49:08;14.93;;;9.87;;
11791;SDS011;5953;52.372;9.918;2023-11-21T08:51:36;12.47;;;8.70;;
11791;SDS011;5953;52.372;9.918;2023-11-21T08:54:04;11.70;;;8.40;;
11791;SDS011;5953;52.372;9.918;2023-11-21T08:56:34;13.47;;;8.70;;
11791;SDS011;5953;52.372;9.918;2023-11-21T08:59:03;11.60;;;8.90;;
11791;SDS011;5953;52.372;9.918;2023-11-21T09:01:31;12.43;;;8.50;;
11791;SDS011;5953;52.372;9.918;2023-11-21T09:03:59;11.07;;;8.53;;
11791;SDS011;5953;52.372;9.918;2023-11-21T09:06:28;10.63;;;7.60;;
11791;SDS011;5953;52.372;9.918;2023-11-21T09:08:56;8.90;;;6.80;;
11791;SDS011;5953;52.372;9.918;2023-11-21T09:11:24;11.60;;;8.93;;
11791;SDS011;5953;52.372;9.918;2023-11-21T09:13:58;11.60;;;8.17;;
11791;SDS011;5953;52.372;9.918;2023-11-21T09:16:27;11.27;;;7.53;;
11791;SDS011;5953;52.372;9.918;2023-11-21T09:18:55;10.67;;;7.47;;
11791;SDS011;5953;52.372;9.918;2023-11-21T09:21:25;11.10;;;7.43;;
11791;SDS011;5953;52.372;9.918;2023-11-21T09:23:53;10.67;;;7.83;;
11791;SDS011;5953;52.372;9.918;2023-11-21T09:26:21;11.57;;;8.17;;
11791;SDS011;5953;52.372;9.918;2023-11-21T09:28:49;8.93;;;6.50;;
11791;SDS011;5953;52.372;9.918;2023-11-21T09:31:17;11.53;;;7.20;;
11791;SDS011;5953;52.372;9.918;2023-11-21T09:33:50;9.00;;;6.93;;
11791;SDS011;5953;52.372;9.918;2023-11-21T09:36:18;8.93;;;7.37;;
11791;SDS011;5953;52.372;9.918;2023-11-21T09:38:47;7.70;;;6.77;;
11791;SDS011;5953;52.372;9.918;2023-11-21T09:41:19;12.13;;;7.27;;
11791;SDS011;5953;52.372;9.918;2023-11-21T09:43:51;9.43;;;6.93;;
11791;SDS011;5953;52.372;9.918;2023-11-21T09:46:25;8.30;;;6.23;;
11791;SDS011;5953;52.372;9.918;2023-11-21T09:48:57;7.93;;;5.97;;
11791;SDS011;5953;52.372;9.918;2023-11-21T09:51:31;9.80;;;6.73;;
11791;SDS011;5953;52.372;9.918;2023-11-21T09:54:02;7.60;;;6.10;;
11791;SDS011;5953;52.372;9.918;2023-11-21T09:56:32;9.00;;;6.70;;
11791;SDS011;5953;52.372;9.918;2023-11-21T09:59:00;10.67;;;7.23;;
11791;SDS011;5953;52.372;9.918;2023-11-21T10:01:32;10.00;;;7.07;;
11791;SDS011;5953;52.372;9.918;2023-11-21T10:04:05;9.67;;;7.63;;
11791;SDS011;5953;52.372;9.918;2023-11-21T10:06:38;8.30;;;6.67;;
11791;SDS011;5953;52.372;9.918;2023-11-21T10:09:08;7.87;;;6.30;;
11791;SDS011;5953;52.372;9.918;2023-11-21T10:11:39;7.30;;;5.93;;
11791;SDS011;5953;52.372;9.918;2023-11-21T10:14:08;8.77;;;6.53;;
11791;SDS011;5953;52.372;9.918;2023-11-21T10:16:39;8.47;;;6.33;;
11791;SDS011;5953;52.372;9.918;2023-11-21T10:19:09;6.93;;;5.77;;
11791;SDS011;5953;52.372;9.918;2023-11-21T10:21:40;7.63;;;6.03;;
11791;SDS011;5953;52.372;9.918;2023-11-21T10:24:08;7.93;;;6.87;;
11791;SDS011;5953;52.372;9.918;2023-11-21T10:26:36;8.53;;;6.87;;
11791;SDS011;5953;52.372;9.918;2023-11-21T10:29:18;8.07;;;7.00;;
11791;SDS011;5953;52.372;9.918;2023-11-21T10:31:49;9.63;;;6.37;;
11791;SDS011;5953;52.372;9.918;2023-11-21T10:34:18;9.60;;;6.97;;
11791;SDS011;5953;52.372;9.918;2023-11-21T10:36:47;7.47;;;6.30;;
11791;SDS011;5953;52.372;9.918;2023-11-21T10:39:16;8.47;;;6.37;;
11791;SDS011;5953;52.372;9.918;2023-11-21T10:41:45;7.10;;;6.20;;
11791;SDS011;5953;52.372;9.918;2023-11-21T10:44:14;7.93;;;6.73;;
11791;SDS011;5953;52.372;9.918;2023-11-21T10:46:48;9.50;;;6.60;;
11791;SDS011;5953;52.372;9.918;2023-11-21T10:49:19;8.73;;;6.67;;
11791;SDS011;5953;52.372;9.918;2023-11-21T10:51:47;7.57;;;6.40;;
11791;SDS011;5953;52.372;9.918;2023-11-21T10:54:18;10.97;;;6.70;;
11791;SDS011;5953;52.372;9.918;2023-11-21T10:56:48;6.47;;;5.70;;
11791;SDS011;5953;52.372;9.918;2023-11-21T10:59:17;8.03;;;5.53;;
11791;SDS011;5953;52.372;9.918;2023-11-21T11:01:47;8.73;;;6.70;;
11791;SDS011;5953;52.372;9.918;2023-11-21T11:04:18;7.33;;;6.00;;
11791;SDS011;5953;52.372;9.918;2023-11-21T11:06:49;7.63;;;6.03;;
11791;SDS011;5953;52.372;9.918;2023-11-21T11:09:18;8.23;;;6.00;;
11791;SDS011;5953;52.372;9.918;2023-11-21T11:11:46;7.77;;;5.83;;
11791;SDS011;5953;52.372;9.918;2023-11-21T11:14:15;7.43;;;6.10;;
11791;SDS011;5953;52.372;9.918;2023-11-21T11:16:45;6.87;;;5.73;;
11791;SDS011;5953;52.372;9.918;2023-11-21T11:19:13;7.23;;;5.77;;
11791;SDS011;5953;52.372;9.918;2023-11-21T11:21:45;6.87;;;5.40;;
11791;SDS011;5953;52.372;9.918;2023-11-21T11:24:33;6.53;;;5.77;;
11791;SDS011;5953;52.372;9.918;2023-11-21T11:27:14;7.17;;;6.23;;
11791;SDS011;5953;52.372;9.918;2023-11-21T11:29:54;6.73;;;5.27;;
11791;SDS011;5953;52.372;9.918;2023-11-21T11:32:33;6.87;;;5.37;;
11791;SDS011;5953;52.372;9.918;2023-11-21T11:35:10;6.03;;;5.43;;
11791;SDS011;5953;52.372;9.918;2023-11-21T11:37:45;7.03;;;5.30;;
11791;SDS011;5953;52.372;9.918;2023-11-21T11:40:13;7.13;;;5.43;;
11791;SDS011;5953;52.372;9.918;2023-11-21T11:42:54;7.60;;;5.73;;
11791;SDS011;5953;52.372;9.918;2023-11-21T11:45:24;6.60;;;5.53;;
11791;SDS011;5953;52.372;9.918;2023-11-21T11:48:00;7.43;;;5.57;;
11791;SDS011;5953;52.372;9.918;2023-11-21T11:50:28;7.20;;;5.13;;
11791;SDS011;5953;52.372;9.918;2023-11-21T11:53:11;6.50;;;5.33;;
11791;SDS011;5953;52.372;9.918;2023-11-21T11:55:40;6.93;;;5.30;;
11791;SDS011;5953;52.372;9.918;2023-11-21T11:58:08;7.17;;;4.57;;
11791;SDS011;5953;52.372;9.918;2023-11-21T12:00:36;5.43;;;4.83;;
11791;SDS011;5953;52.372;9.918;2023-11-21T12:03:06;5.40;;;4.50;;
11791;SDS011;5953;52.372;9.918;2023-11-21T12:05:36;5.80;;;5.10;;
11791;SDS011;5953;52.372;9.918;2023-11-21T12:08:07;5.73;;;4.37;;
11791;SDS011;5953;52.372;9.918;2023-11-21T12:10:35;5.23;;;4.47;;
11791;SDS011;5953;52.372;9.918;2023-11-21T12:13:05;8.03;;;5.00;;
11791;SDS011;5953;52.372;9.918;2023-11-21T12:15:34;6.50;;;4.37;;
11791;SDS011;5953;52.372;9.918;2023-11-21T12:18:04;6.80;;;4.43;;
11791;SDS011;5953;52.372;9.918;2023-11-21T12:20:32;6.10;;;4.97;;
11791;SDS011;5953;52.372;9.918;2023-11-21T12:23:07;5.57;;;4.30;;
11791;SDS011;5953;52.372;9.918;2023-11-21T12:25:36;5.40;;;4.83;;
11791;SDS011;5953;52.372;9.918;2023-11-21T12:28:06;5.77;;;5.17;;
11791;SDS011;5953;52.372;9.918;2023-11-21T12:30:36;4.97;;;4.47;;
11791;SDS011;5953;52.372;9.918;2023-11-21T12:33:05;4.60;;;3.83;;
11791;SDS011;5953;52.372;9.918;2023-11-21T12:35:35;4.70;;;4.20;;
11791;SDS011;5953;52.372;9.918;2023-11-21T12:38:04;4.00;;;3.57;;
11791;SDS011;5953;52.372;9.918;2023-11-21T12:40:33;5.47;;;3.63;;
11791;SDS011;5953;52.372;9.918;2023-11-21T12:43:01;4.03;;;3.63;;
11791;SDS011;5953;52.372;9.918;2023-11-21T12:45:30;5.50;;;4.13;;
11791;SDS011;5953;52.372;9.918;2023-11-21T12:47:59;5.07;;;3.93;;
11791;SDS011;5953;52.372;9.918;2023-11-21T12:50:30;4.47;;;3.87;;
11791;SDS011;5953;52.372;9.918;2023-11-21T12:53:00;5.63;;;3.90;;
11791;SDS011;5953;52.372;9.918;2023-11-21T12:55:31;4.43;;;3.90;;
11791;SDS011;5953;52.372;9.918;2023-11-21T12:58:04;5.97;;;4.23;;
11791;SDS011;5953;52.372;9.918;2023-11-21T13:00:38;5.77;;;3.97;;
11791;SDS011;5953;52.372;9.918;2023-11-21T13:03:09;5.50;;;4.37;;
11791;SDS011;5953;52.372;9.918;2023-11-21T13:05:39;5.00;;;3.73;;
11791;SDS011;5953;52.372;9.918;2023-11-21T13:08:13;5.77;;;4.23;;
11791;SDS011;5953;52.372;9.918;2023-11-21T13:10:48;3.97;;;3.57;;
11791;SDS011;5953;52.372;9.918;2023-11-21T13:13:18;5.80;;;4.70;;
11791;SDS011;5953;52.372;9.918;2023-11-21T13:15:50;6.23;;;4.10;;
11791;SDS011;5953;52.372;9.918;2023-11-21T13:18:22;5.97;;;4.77;;
11791;SDS011;5953;52.372;9.918;2023-11-21T13:20:50;5.03;;;4.50;;
11791;SDS011;5953;52.372;9.918;2023-11-21T13:23:19;5.63;;;4.30;;
11791;SDS011;5953;52.372;9.918;2023-11-21T13:25:50;3.87;;;3.37;;
11791;SDS011;5953;52.372;9.918;2023-11-21T13:28:28;5.00;;;4.50;;
11791;SDS011;5953;52.372;9.918;2023-11-21T13:30:59;7.20;;;4.17;;
11791;SDS011;5953;52.372;9.918;2023-11-21T13:33:30;4.70;;;4.20;;
11791;SDS011;5953;52.372;9.918;2023-11-21T13:35:59;5.40;;;4.20;;
11791;SDS011;5953;52.372;9.918;2023-11-21T13:38:28;4.37;;;3.97;;
11791;SDS011;5953;52.372;9.918;2023-11-21T13:41:00;6.43;;;4.30;;
11791;SDS011;5953;52.372;9.918;2023-11-21T13:43:33;4.90;;;4.33;;
11791;SDS011;5953;52.372;9.918;2023-11-21T13:46:01;5.20;;;4.03;;
11791;SDS011;5953;52.372;9.918;2023-11-21T13:48:34;5.77;;;3.93;;
11791;SDS011;5953;52.372;9.918;2023-11-21T13:51:08;4.13;;;3.73;;
11791;SDS011;5953;52.372;9.918;2023-11-21T13:53:43;4.30;;;3.57;;
11791;SDS011;5953;52.372;9.918;2023-11-21T13:56:15;6.57;;;4.10;;
11791;SDS011;5953;52.372;9.918;2023-11-21T13:58:48;4.07;;;3.67;;
11791;SDS011;5953;52.372;9.918;2023-11-21T14:01:18;5.20;;;3.60;;
11791;SDS011;5953;52.372;9.918;2023-11-21T14:04:11;5.67;;;3.90;;
11791;SDS011;5953;52.372;9.918;2023-11-21T14:06:46;4.20;;;3.57;;
11791;SDS011;5953;52.372;9.918;2023-11-21T14:09:16;5.33;;;4.10;;
11791;SDS011;5953;52.372;9.918;2023-11-21T14:11:51;4.03;;;3.60;;
11791;SDS011;5953;52.372;9.918;2023-11-21T14:14:20;4.30;;;3.90;;
11791;SDS011;5953;52.372;9.918;2023-11-21T14:16:50;5.13;;;3.50;;
11791;SDS011;5953;52.372;9.918;2023-11-21T14:19:18;4.23;;;3.30;;
11791;SDS011;5953;52.372;9.918;2023-11-21T14:21:46;5.47;;;3.87;;
11791;SDS011;5953;52.372;9.918;2023-11-21T14:24:15;9.13;;;4.33;;
11791;SDS011;5953;52.372;9.918;2023-11-21T14:26:44;5.33;;;3.80;;
11791;SDS011;5953;52.372;9.918;2023-11-21T14:29:15;5.87;;;3.60;;
11791;SDS011;5953;52.372;9.918;2023-11-21T14:31:46;4.60;;;3.50;;
11791;SDS011;5953;52.372;9.918;2023-11-21T14:34:15;4.43;;;3.93;;
11791;SDS011;5953;52.372;9.918;2023-11-21T14:36:47;6.90;;;3.60;;
11791;SDS011;5953;52.372;9.918;2023-11-21T14:39:15;6.77;;;4.60;;
11791;SDS011;5953;52.372;9.918;2023-11-21T14:41:49;6.10;;;3.50;;
11791;SDS011;5953;52.372;9.918;2023-11-21T14:44:20;5.43;;;3.93;;
11791;SDS011;5953;52.372;9.918;2023-11-21T14:46:52;6.23;;;3.80;;
11791;SDS011;5953;52.372;9.918;2023-11-21T14:49:24;4.90;;;4.07;;
11791;SDS011;5953;52.372;9.918;2023-11-21T14:51:54;5.63;;;3.80;;
11791;SDS011;5953;52.372;9.918;2023-11-21T14:54:27;4.20;;;3.80;;
11791;SDS011;5953;52.372;9.918;2023-11-21T14:57:07;5.20;;;4.00;;
11791;SDS011;5953;52.372;9.918;2023-11-21T14:59:42;4.40;;;4.00;;
11791;SDS011;5953;52.372;9.918;2023-11-21T15:02:13;5.07;;;3.83;;
11791;SDS011;5953;52.372;9.918;2023-11-21T15:04:48;5.23;;;3.97;;